Blossom, Texas
Current Conditions -  °F | °C
As of 6:15 AM on Friday 19 Dec 2014 (Local Time) from KPRX Reporting Station
Overcast Overcast  
Wind Chill: 41°   Ceiling: 300
Heat Index: 45°   Visibility: 5mi
Dew Point: 43°   Wind: 6mph
Humidity: 93%   Direction: 360°N
Pressure: 30.21"   Gusts: NA
Location:  33.66°N, 95.39°W
Report Text: KPRX 191215Z 36005KT 5SM OVC003 07/06 A3021 RMK AO1
Loading
Personal Weather Stations






























Interactive Weather Map New forecast layout! Learn more

10-Day Weather Forecast

Advertisements
Track Severe Weather on mobile